Time;durP1;ratioP1;P1;durP2;ratioP2;P2;SDS_P1;SDS_P2;PMS_P1;PMS_P2;Temp;Humidity;BMP_temperature;BMP_pressure;BME280_temperature;BME280_humidity;BME280_pressure;Samples;Min_cycle;Max_cycle;Signal;HPM_P1;HPM_P2
2022/03/19 00:01:02;;;;;;;18.83;3.80;;;4.30;99.90;;;;;;5058627;28;20040;-67
2022/03/19 00:03:28;;;;;;;16.80;3.33;;;4.00;99.90;;;;;;5068103;28;20628;-67
2022/03/19 00:05:54;;;;;;;21.85;3.80;;;4.00;99.90;;;;;;5068894;28;20166;-67
2022/03/19 00:08:20;;;;;;;23.08;4.35;;;3.90;99.90;;;;;;5067938;28;20093;-67
2022/03/19 00:10:46;;;;;;;13.55;3.75;;;3.90;99.90;;;;;;5069104;28;20048;-68
2022/03/19 00:13:15;;;;;;;24.02;4.15;;;3.90;99.90;;;;;;5063892;28;20040;-68
2022/03/19 00:15:40;;;;;;;;;;;3.90;99.90;;;;;;5064551;28;20068;-67
2022/03/19 00:18:06;;;;;;;8.63;3.13;;;3.90;99.90;;;;;;5066364;28;20009;-67
2022/03/19 00:20:35;;;;;;;14.68;3.10;;;3.90;99.90;;;;;;5070403;28;20041;-68
2022/03/19 00:23:00;;;;;;;14.30;3.30;;;3.90;99.90;;;;;;5060166;28;20511;-67
2022/03/19 00:25:26;;;;;;;16.70;3.33;;;3.90;99.90;;;;;;5060579;28;20130;-68
2022/03/19 00:27:52;;;;;;;17.02;3.75;;;3.90;99.90;;;;;;5067777;28;20430;-67
2022/03/19 00:30:17;;;;;;;13.95;3.25;;;3.90;99.90;;;;;;5064846;28;20041;-67
2022/03/19 00:32:43;;;;;;;14.68;3.22;;;3.90;99.90;;;;;;5067730;28;20506;-68
2022/03/19 00:35:10;;;;;;;10.95;2.88;;;3.90;99.90;;;;;;5062189;28;20044;-67
2022/03/19 00:37:46;;;;;;;18.40;3.55;;;3.90;99.90;;;;;;5060666;28;20044;-68
2022/03/19 00:40:16;;;;;;;17.85;3.15;;;3.80;99.90;;;;;;5056922;28;20060;-68
2022/03/19 00:42:43;;;;;;;17.73;3.10;;;3.80;99.90;;;;;;5062708;28;20474;-67
2022/03/19 00:45:09;;;;;;;23.75;4.47;;;3.80;99.90;;;;;;5068889;28;20550;-67
2022/03/19 00:47:35;;;;;;;19.27;3.42;;;3.80;99.90;;;;;;5063304;28;20044;-67
2022/03/19 00:50:02;;;;;;;18.85;3.78;;;3.70;99.90;;;;;;5060381;28;20152;-68
2022/03/19 00:52:28;;;;;;;15.25;3.15;;;3.70;99.90;;;;;;5053059;28;20057;-68
2022/03/19 00:54:54;;;;;;;16.92;3.63;;;3.70;99.90;;;;;;5055328;28;20132;-67
2022/03/19 00:57:19;;;;;;;20.08;4.07;;;3.70;99.90;;;;;;5067204;28;20834;-68
2022/03/19 00:59:46;;;;;;;14.30;3.17;;;3.70;99.90;;;;;;5063767;28;20036;-68
2022/03/19 01:02:11;;;;;;;20.58;3.45;;;3.60;99.90;;;;;;5074269;28;20036;-68
2022/03/19 01:04:37;;;;;;;15.23;2.80;;;3.60;99.90;;;;;;5075313;28;20063;-67
2022/03/19 01:07:03;;;;;;;21.65;4.10;;;3.70;99.90;;;;;;5063633;28;20040;-67
2022/03/19 01:09:29;;;;;;;19.38;3.40;;;3.60;99.90;;;;;;5075108;28;20064;-67
2022/03/19 01:11:54;;;;;;;23.67;4.28;;;3.60;99.90;;;;;;5075690;28;20071;-67
2022/03/19 01:14:20;;;;;;;18.50;3.63;;;3.60;99.90;;;;;;5074295;28;20629;-68
2022/03/19 01:16:46;;;;;;;18.88;3.63;;;3.70;99.90;;;;;;5073787;28;20090;-67
2022/03/19 01:19:12;;;;;;;20.50;3.40;;;3.50;99.90;;;;;;5074294;28;20037;-67
2022/03/19 01:21:39;;;;;;;20.60;3.63;;;3.50;99.90;;;;;;5070689;28;20066;-67
2022/03/19 01:24:05;;;;;;;21.20;3.75;;;3.50;99.90;;;;;;5075989;28;20120;-68
2022/03/19 01:26:31;;;;;;;19.85;4.05;;;3.50;99.90;;;;;;5078025;28;20128;-67
2022/03/19 01:28:57;;;;;;;19.63;4.30;;;3.50;99.90;;;;;;5073424;28;20045;-68
2022/03/19 01:31:26;;;;;;;15.20;3.05;;;3.50;99.90;;;;;;5073919;28;20048;-67
2022/03/19 01:33:55;;;;;;;18.38;3.83;;;3.40;99.90;;;;;;5074332;28;20044;-67
2022/03/19 01:36:21;;;;;;;24.77;3.97;;;3.90;99.90;;;;;;5073207;28;20079;-68
2022/03/19 01:38:47;;;;;;;18.02;3.40;;;3.40;99.90;;;;;;5072315;28;20083;-67
2022/03/19 01:41:13;;;;;;;17.95;3.70;;;3.40;99.90;;;;;;5067977;28;20072;-68
2022/03/19 01:43:39;;;;;;;24.08;3.90;;;3.40;99.90;;;;;;5067351;28;20044;-67
2022/03/19 01:46:07;;;;;;;19.85;3.78;;;3.40;99.90;;;;;;5063678;28;20561;-68
2022/03/19 01:48:33;;;;;;;21.60;3.40;;;3.40;99.90;;;;;;5070939;28;20105;-67
2022/03/19 01:50:59;;;;;;;13.30;3.00;;;3.40;99.90;;;;;;5073027;28;20140;-68
2022/03/19 01:53:24;;;;;;;14.90;3.47;;;3.40;99.90;;;;;;5072291;28;20131;-68
2022/03/19 01:55:52;;;;;;;15.07;3.42;;;3.40;99.90;;;;;;5054501;28;20063;-67
2022/03/19 01:58:18;;;;;;;17.65;3.83;;;3.40;99.90;;;;;;5068778;28;20419;-68
2022/03/19 02:00:44;;;;;;;18.25;4.82;;;3.50;99.90;;;;;;5071801;28;20048;-67
2022/03/19 02:03:10;;;;;;;20.42;3.63;;;3.50;99.90;;;;;;5072812;28;20099;-68
2022/03/19 02:05:36;;;;;;;20.13;3.70;;;3.50;99.90;;;;;;5072074;28;20505;-67
2022/03/19 02:08:02;;;;;;;20.98;4.20;;;3.50;99.90;;;;;;5070616;28;20040;-67
2022/03/19 02:10:29;;;;;;;20.15;3.97;;;3.40;99.90;;;;;;5071872;28;20478;-67
2022/03/19 02:12:56;;;;;;;20.40;3.95;;;3.40;99.90;;;;;;5072297;28;20048;-67
2022/03/19 02:15:22;;;;;;;19.30;3.90;;;3.40;99.90;;;;;;5107555;22;20417;-77
2022/03/19 02:17:48;;;;;;;21.08;3.78;;;3.40;99.90;;;;;;5094972;28;20498;-77
2022/03/19 02:20:14;;;;;;;20.40;4.10;;;3.40;99.90;;;;;;5094636;28;20040;-77
2022/03/19 02:25:34;;;;;;;12.18;3.60;;;3.40;99.90;;;;;;5097674;28;20078;-77
2022/03/19 02:25:35;;;;;;;22.33;4.70;;;3.40;99.90;;;;;;5100671;28;20050;-77
2022/03/19 02:28:01;;;;;;;34.03;4.72;;;3.40;99.90;;;;;;5095211;28;20094;-77
2022/03/19 02:30:27;;;;;;;20.70;4.18;;;3.40;99.90;;;;;;5092881;28;20550;-77
2022/03/19 02:32:53;;;;;;;16.73;4.18;;;3.80;99.90;;;;;;5095164;28;20040;-77
2022/03/19 02:35:19;;;;;;;19.33;4.25;;;3.60;99.90;;;;;;5094204;28;20402;-77
2022/03/19 02:37:50;;;;;;;25.85;4.13;;;4.80;99.90;;;;;;5089402;28;20037;-77
2022/03/19 02:40:19;;;;;;;17.25;4.53;;;3.60;99.90;;;;;;5107072;28;20047;-77
2022/03/19 02:42:55;;;;;;;22.08;4.13;;;3.60;99.90;;;;;;5098163;28;20498;-77
2022/03/19 02:45:22;;;;;;;20.00;4.63;;;3.60;99.90;;;;;;5096116;28;20394;-77
2022/03/19 02:47:57;;;;;;;24.38;4.65;;;4.90;99.90;;;;;;5089676;28;20048;-77
2022/03/19 02:50:24;;;;;;;21.63;4.40;;;4.50;99.90;;;;;;5098133;28;20075;-77
2022/03/19 02:52:50;;;;;;;14.45;3.72;;;3.70;99.90;;;;;;5099741;28;20040;-77
2022/03/19 02:55:16;;;;;;;20.50;4.18;;;3.70;99.90;;;;;;5103391;28;20054;-77
2022/03/19 02:57:41;;;;;;;16.60;4.38;;;3.70;99.90;;;;;;5095415;28;20169;-77
2022/03/19 03:00:08;;;;;;;29.42;5.63;;;3.60;99.90;;;;;;5095681;28;20044;-76
2022/03/19 03:02:34;;;;;;;25.25;5.88;;;3.60;99.90;;;;;;5093038;28;20048;-77
2022/03/19 03:05:00;;;;;;;20.98;4.88;;;3.60;99.90;;;;;;5082905;28;20493;-77
2022/03/19 03:07:25;;;;;;;18.70;4.15;;;3.60;99.90;;;;;;5094254;28;20094;-77
2022/03/19 03:09:51;;;;;;;21.35;5.35;;;3.60;99.90;;;;;;5089415;28;20040;-77
2022/03/19 03:12:22;;;;;;;21.77;5.00;;;5.00;99.90;;;;;;5074038;28;20051;-77
2022/03/19 03:14:47;;;;;;;16.15;5.13;;;3.60;99.90;;;;;;5088250;28;20119;-77
2022/03/19 03:17:13;;;;;;;20.13;4.85;;;3.60;99.90;;;;;;5092398;28;20100;-77
2022/03/19 03:19:38;;;;;;;21.23;5.22;;;3.50;99.90;;;;;;5094443;28;20436;-77
2022/03/19 03:22:04;;;;;;;20.50;5.45;;;4.70;99.90;;;;;;5098024;28;20119;-77
2022/03/19 03:24:30;;;;;;;24.75;5.28;;;4.30;99.90;;;;;;5101094;28;20048;-76
2022/03/19 03:26:55;;;;;;;29.52;5.57;;;3.50;99.90;;;;;;5107038;28;20036;-77
2022/03/19 03:29:21;;;;;;;21.65;4.88;;;3.50;99.90;;;;;;5106804;28;20044;-77
2022/03/19 03:31:47;;;;;;;19.73;5.63;;;3.50;99.90;;;;;;5098058;28;20048;-77
2022/03/19 03:34:12;;;;;;;20.05;5.60;;;3.50;99.90;;;;;;5108243;28;20070;-77
2022/03/19 03:36:39;;;;;;;22.65;5.80;;;4.90;99.90;;;;;;5099387;28;20032;-76
2022/03/19 03:39:04;;;;;;;23.00;5.78;;;3.50;99.90;;;;;;5110624;28;20051;-77
2022/03/19 03:41:30;;;;;;;23.65;6.32;;;3.50;99.90;;;;;;5110212;28;20119;-77
2022/03/19 03:44:00;;;;;;;22.98;6.38;;;3.50;99.90;;;;;;5108906;28;20036;-77
2022/03/19 03:46:25;;;;;;;25.92;6.10;;;3.40;99.90;;;;;;5109368;28;20051;-77
2022/03/19 03:48:51;;;;;;;29.58;6.43;;;3.40;99.90;;;;;;5108643;28;20032;-77
2022/03/19 03:51:17;;;;;;;23.48;6.25;;;4.60;99.90;;;;;;5105096;28;20059;-77
2022/03/19 03:53:46;;;;;;;19.83;7.03;;;4.90;99.90;;;;;;5097859;28;20123;-77
2022/03/19 03:56:12;;;;;;;27.15;6.35;;;3.40;99.90;;;;;;5116661;28;20046;-77
2022/03/19 03:58:40;;;;;;;30.38;7.20;;;3.70;99.90;;;;;;5120968;28;20040;-77
2022/03/19 04:01:07;;;;;;;23.75;6.65;;;3.30;99.90;;;;;;5086570;28;20052;-77
2022/03/19 04:03:33;;;;;;;21.80;6.57;;;3.30;99.90;;;;;;5099074;28;20107;-77
2022/03/19 04:05:58;;;;;;;27.90;6.95;;;3.20;99.90;;;;;;5098427;28;20127;-78
2022/03/19 04:08:24;;;;;;;22.58;6.72;;;3.20;99.90;;;;;;5105443;28;20036;-77
2022/03/19 04:10:49;;;;;;;31.13;6.65;;;3.30;99.90;;;;;;5114968;28;20066;-77
2022/03/19 04:13:15;;;;;;;17.95;6.15;;;3.30;99.90;;;;;;5088347;28;20372;-77
2022/03/19 04:15:41;;;;;;;26.77;7.40;;;4.90;99.90;;;;;;5112430;28;20056;-77
2022/03/19 04:18:06;;;;;;;24.63;7.55;;;3.40;99.90;;;;;;5114627;28;20032;-77
2022/03/19 04:20:32;;;;;;;22.55;8.30;;;3.40;99.90;;;;;;5117596;28;20091;-77
2022/03/19 04:22:58;;;;;;;23.90;6.78;;;4.40;99.90;;;;;;5090375;28;20036;-77
2022/03/19 04:25:25;;;;;;;27.42;7.18;;;3.40;99.90;;;;;;5097256;28;20394;-77
2022/03/19 04:27:56;;;;;;;22.42;8.25;;;3.40;99.90;;;;;;5106245;28;20048;-76
2022/03/19 04:30:24;;;;;;;30.75;7.53;;;3.50;99.90;;;;;;5107677;28;20016;-76
2022/03/19 04:32:55;;;;;;;27.73;8.57;;;3.50;99.90;;;;;;5094852;28;20083;-77
2022/03/19 04:38:09;;;;;;;21.60;7.03;;;3.60;99.90;;;;;;5097006;28;20202;-77
2022/03/19 04:40:35;;;;;;;23.23;8.45;;;3.60;99.90;;;;;;5100087;28;20040;-76
2022/03/19 04:43:01;;;;;;;24.73;8.20;;;3.60;99.90;;;;;;5096516;28;20059;-77
2022/03/19 04:45:27;;;;;;;25.27;7.90;;;3.70;99.90;;;;;;5096666;28;20123;-77
2022/03/19 04:47:53;;;;;;;20.15;7.80;;;3.70;99.90;;;;;;5100522;28;20490;-77
2022/03/19 04:50:19;;;;;;;23.63;8.90;;;3.70;99.90;;;;;;5089549;28;20070;-77
2022/03/19 04:52:45;;;;;;;27.20;8.85;;;3.70;99.90;;;;;;5099686;28;20058;-77
2022/03/19 04:55:11;;;;;;;20.65;8.00;;;3.60;99.90;;;;;;5101916;28;20046;-77
2022/03/19 04:57:38;;;;;;;24.27;8.27;;;3.60;99.90;;;;;;5094508;28;20462;-77
2022/03/19 05:00:05;;;;;;;21.35;7.88;;;3.50;99.90;;;;;;5100305;28;20118;-78
2022/03/19 05:02:32;;;;;;;21.02;7.32;;;3.60;99.90;;;;;;5097618;28;20036;-78
2022/03/19 05:04:57;;;;;;;22.83;8.82;;;3.50;99.90;;;;;;5094492;28;20051;-77
2022/03/19 05:07:24;;;;;;;18.48;7.35;;;3.50;99.90;;;;;;5100332;28;20033;-77
2022/03/19 05:12:40;;;;;;;26.52;7.93;;;3.50;99.90;;;;;;5100616;28;20048;-77
2022/03/19 05:15:10;;;;;;;21.85;7.32;;;3.50;99.90;;;;;;5099051;28;20053;-77
2022/03/19 05:17:36;;;;;;;21.48;8.18;;;3.40;99.90;;;;;;5099370;28;20040;-77
2022/03/19 05:20:03;;;;;;;25.27;7.82;;;3.40;99.90;;;;;;5105803;28;20071;-77
2022/03/19 05:22:29;;;;;;;25.95;7.85;;;3.40;99.90;;;;;;5105337;28;20099;-78
2022/03/19 05:24:56;;;;;;;24.13;7.80;;;3.80;99.90;;;;;;5101721;28;20036;-77
2022/03/19 05:27:22;;;;;;;29.15;8.02;;;3.30;99.90;;;;;;5112068;28;20044;-77
2022/03/19 05:29:48;;;;;;;26.50;8.43;;;4.40;99.90;;;;;;5105750;28;20125;-77
2022/03/19 05:32:14;;;;;;;21.00;8.35;;;3.20;99.90;;;;;;5119837;28;20036;-77
2022/03/19 05:34:40;;;;;;;21.65;7.85;;;3.20;99.90;;;;;;5110906;28;20044;-77
2022/03/19 05:37:06;;;;;;;25.30;8.68;;;3.20;99.90;;;;;;5115668;28;20028;-78
2022/03/19 05:39:32;;;;;;;23.55;8.30;;;3.20;99.90;;;;;;5111411;28;20075;-77
2022/03/19 05:41:58;;;;;;;28.48;8.93;;;3.10;99.90;;;;;;5114915;28;20016;-78
2022/03/19 05:44:24;;;;;;;28.08;9.18;;;3.10;99.90;;;;;;5136204;28;20059;-76
2022/03/19 05:46:50;;;;;;;26.50;9.38;;;3.10;99.90;;;;;;5147494;27;20058;-77
2022/03/19 05:49:16;;;;;;;26.58;10.15;;;3.10;99.90;;;;;;5106136;28;20067;-77
2022/03/19 05:51:42;;;;;;;24.35;9.65;;;3.10;99.90;;;;;;5099995;28;20453;-77
2022/03/19 05:54:09;;;;;;;28.13;9.75;;;3.10;99.90;;;;;;5097265;28;20123;-77
2022/03/19 05:56:36;;;;;;;34.38;9.70;;;3.00;99.90;;;;;;5098273;28;20047;-77
2022/03/19 05:59:01;;;;;;;22.65;9.65;;;3.00;99.90;;;;;;5111348;28;20383;-78
2022/03/19 06:01:27;;;;;;;26.00;10.38;;;3.00;99.90;;;;;;5099107;28;20047;-77
2022/03/19 06:03:57;;;;;;;29.05;11.23;;;3.10;99.90;;;;;;5094267;28;20134;-77
2022/03/19 06:06:23;;;;;;;31.52;11.65;;;3.70;99.90;;;;;;5093402;28;20043;-77
2022/03/19 06:08:50;;;;;;;29.13;11.45;;;4.60;99.90;;;;;;5096426;28;20040;-77
2022/03/19 06:11:16;;;;;;;25.67;10.32;;;3.20;99.90;;;;;;5097144;28;20153;-77
2022/03/19 06:13:44;;;;;;;31.77;11.18;;;3.20;99.90;;;;;;5110497;28;20046;-76
2022/03/19 06:16:11;;;;;;;34.03;12.20;;;3.20;99.90;;;;;;5103602;28;20040;-77
2022/03/19 06:18:37;;;;;;;33.70;11.18;;;3.30;99.90;;;;;;5100139;28;20040;-76
2022/03/19 06:21:03;;;;;;;35.13;12.25;;;3.40;99.90;;;;;;5113036;28;20031;-77
2022/03/19 06:23:29;;;;;;;27.27;11.07;;;3.40;99.90;;;;;;5114799;28;20439;-76
2022/03/19 06:25:57;;;;;;;32.28;10.90;;;3.40;99.90;;;;;;5114533;28;20055;-77
2022/03/19 06:28:23;;;;;;;28.48;11.23;;;3.40;99.90;;;;;;5117206;28;20044;-76
2022/03/19 06:30:54;;;;;;;25.90;10.38;;;3.50;99.90;;;;;;5113930;28;20050;-77
2022/03/19 06:33:22;;;;;;;24.05;10.00;;;3.50;99.90;;;;;;5137406;27;20044;-78
2022/03/19 06:38:34;;;;;;;21.58;9.48;;;3.70;99.90;;;;;;5105157;28;20044;-78
2022/03/19 06:41:00;;;;;;;21.30;8.85;;;3.70;99.90;;;;;;5103441;28;20043;-78
2022/03/19 06:43:27;;;;;;;26.58;9.95;;;5.40;99.90;;;;;;5108029;28;20047;-77
2022/03/19 06:45:57;;;;;;;16.58;8.27;;;3.90;99.90;;;;;;5107968;28;20040;-77
2022/03/19 06:48:23;;;;;;;18.92;7.78;;;4.00;99.90;;;;;;5107199;28;20046;-77
2022/03/19 06:50:50;;;;;;;18.25;8.13;;;4.30;99.90;;;;;;5104712;28;20132;-78
2022/03/19 06:53:18;;;;;;;24.88;8.45;;;4.20;99.90;;;;;;5102131;28;20040;-77
2022/03/19 06:55:44;;;;;;;20.67;7.93;;;4.40;99.90;;;;;;5104068;28;20059;-77
2022/03/19 06:58:09;;;;;;;23.42;7.43;;;4.80;99.90;;;;;;5091721;28;20036;-77
2022/03/19 07:00:37;;;;;;;24.00;7.65;;;5.20;99.90;;;;;;5092216;28;20048;-77
2022/03/19 07:03:03;;;;;;;17.60;7.10;;;5.60;99.90;;;;;;5093595;28;20551;-78
2022/03/19 07:05:32;;;;;;;25.95;7.82;;;7.20;99.90;;;;;;5096245;28;20294;-78
2022/03/19 07:07:59;;;;;;;21.67;8.02;;;5.80;99.90;;;;;;5115400;28;20054;-78
2022/03/19 07:10:28;;;;;;;16.38;7.38;;;5.80;99.90;;;;;;5133453;28;20099;-78
2022/03/19 07:12:57;;;;;;;23.27;7.32;;;5.70;99.90;;;;;;5123523;28;20043;-78
2022/03/19 07:15:28;;;;;;;21.05;7.10;;;7.10;99.90;;;;;;5092301;28;20059;-78
2022/03/19 07:17:55;;;;;;;24.00;7.53;;;5.70;99.90;;;;;;5106655;28;20047;-78
2022/03/19 07:20:21;;;;;;;20.00;7.15;;;5.70;99.90;;;;;;5113021;28;20048;-78
2022/03/19 07:22:58;;;;;;;23.85;7.55;;;5.80;99.90;;;;;;5097229;28;20046;-78
2022/03/19 07:25:28;;;;;;;26.23;7.05;;;5.90;99.90;;;;;;5101272;28;20050;-78
2022/03/19 07:27:57;;;;;;;18.77;6.28;;;5.90;99.90;;;;;;5113911;28;20057;-78
2022/03/19 07:30:25;;;;;;;;;;;5.90;99.90;;;;;;5092095;28;20067;-78
2022/03/19 07:32:51;;;;;;;18.88;6.53;;;6.00;99.90;;;;;;5097637;28;20053;-78
2022/03/19 07:35:17;;;;;;;19.65;6.38;;;6.10;99.90;;;;;;5097452;28;20079;-78
2022/03/19 07:37:44;;;;;;;21.35;7.03;;;6.20;99.90;;;;;;5103221;28;20487;-78
2022/03/19 07:41:45;;;;;;;20.33;6.65;;;6.30;99.90;;;;;;5103301;28;20054;-78
2022/03/19 07:43:16;;;;;;;24.55;7.30;;;6.30;99.90;;;;;;5096404;28;20051;-77
2022/03/19 07:45:44;;;;;;;24.33;6.05;;;6.40;99.90;;;;;;5100473;28;20065;-77
2022/03/19 07:48:10;;;;;;;27.20;6.28;;;7.90;99.90;;;;;;5093863;28;20115;-78
2022/03/19 07:50:37;;;;;;;14.80;5.80;;;7.60;99.90;;;;;;5099223;28;20474;-78
2022/03/19 07:53:03;;;;;;;26.33;6.68;;;6.70;99.90;;;;;;5099717;28;20517;-78
2022/03/19 07:55:30;;;;;;;22.10;6.25;;;6.80;99.90;;;;;;5102009;28;20043;-78
2022/03/19 07:57:56;;;;;;;15.98;5.75;;;6.90;99.90;;;;;;5107711;28;20039;-78
2022/03/19 08:00:22;;;;;;;19.77;5.40;;;7.00;99.90;;;;;;5124213;28;20772;-78
2022/03/19 08:02:48;;;;;;;18.88;5.90;;;7.10;99.90;;;;;;5106438;28;20094;-77
2022/03/19 08:05:14;;;;;;;23.13;5.18;;;7.20;99.90;;;;;;5094136;28;20040;-78
2022/03/19 08:07:40;;;;;;;15.73;5.95;;;7.30;99.90;;;;;;5100988;28;20402;-78
2022/03/19 08:10:07;;;;;;;16.77;5.28;;;7.40;99.90;;;;;;5102961;28;20123;-77
2022/03/19 08:12:33;;;;;;;16.93;5.40;;;7.50;99.90;;;;;;5103093;28;20036;-77
2022/03/19 08:14:59;;;;;;;16.92;4.88;;;7.50;99.90;;;;;;5100785;28;20059;-77
2022/03/19 08:17:26;;;;;;;19.38;5.40;;;7.60;99.90;;;;;;5095014;28;20051;-77
2022/03/19 08:19:52;;;;;;;18.75;5.20;;;7.60;99.90;;;;;;5097678;28;20051;-77
2022/03/19 08:22:18;;;;;;;20.23;5.88;;;7.60;99.90;;;;;;5101506;28;20035;-77
2022/03/19 08:24:45;;;;;;;21.67;5.25;;;8.10;99.90;;;;;;5095692;28;20050;-77
2022/03/19 08:27:11;;;;;;;22.65;5.72;;;7.80;99.90;;;;;;5103527;28;20044;-74
2022/03/19 08:29:36;;;;;;;17.75;4.97;;;7.90;99.90;;;;;;5101466;27;20040;-75
2022/03/19 08:32:02;;;;;;;20.20;5.75;;;8.00;99.90;;;;;;5080044;28;20541;-76
2022/03/19 08:34:28;;;;;;;23.45;5.57;;;8.20;99.90;;;;;;5099288;28;20082;-75
2022/03/19 08:36:54;;;;;;;17.48;5.30;;;8.20;99.90;;;;;;5096340;28;20032;-75
2022/03/19 08:42:05;;;;;;;19.20;5.50;;;8.30;99.90;;;;;;5101644;28;20040;-75
2022/03/19 08:44:30;;;;;;;19.70;4.95;;;8.50;99.90;;;;;;5099150;28;20040;-75
2022/03/19 08:46:56;;;;;;;18.55;4.70;;;8.60;99.90;;;;;;5099858;28;20079;-76
2022/03/19 08:49:21;;;;;;;15.38;4.63;;;8.60;99.90;;;;;;5085750;28;20044;-76
2022/03/19 08:51:47;;;;;;;15.25;4.15;;;8.70;99.90;;;;;;5086847;28;20036;-75
2022/03/19 08:54:15;;;;;;;14.40;4.57;;;8.90;99.90;;;;;;5099076;28;20545;-75
2022/03/19 08:56:43;;;;;;;13.02;3.88;;;9.10;99.90;;;;;;5094595;28;20447;-74
2022/03/19 08:59:09;;;;;;;15.30;4.97;;;9.20;99.90;;;;;;5091063;28;20040;-73
2022/03/19 09:01:36;;;;;;;18.88;4.50;;;9.30;99.90;;;;;;5095698;28;20557;-74
2022/03/19 09:04:03;;;;;;;15.43;4.13;;;9.70;99.90;;;;;;5095962;28;20089;-75
2022/03/19 09:06:29;;;;;;;16.85;5.32;;;9.40;99.90;;;;;;5096576;28;20076;-74
2022/03/19 09:08:54;;;;;;;15.82;4.20;;;9.20;99.90;;;;;;5096094;28;20485;-77
2022/03/19 09:11:23;;;;;;;18.65;4.60;;;9.70;99.90;;;;;;5094146;28;20445;-74
2022/03/19 09:13:50;;;;;;;18.45;4.60;;;9.40;99.90;;;;;;5096618;28;20040;-75
2022/03/19 09:16:17;;;;;;;18.90;4.63;;;9.90;99.90;;;;;;5126862;27;20052;-75
2022/03/19 09:18:44;;;;;;;14.43;4.33;;;9.50;99.90;;;;;;5129315;27;20047;-75
2022/03/19 09:21:09;;;;;;;19.65;4.45;;;9.60;99.90;;;;;;5102069;28;20112;-74
2022/03/19 09:23:36;;;;;;;16.10;4.22;;;9.80;99.90;;;;;;5077546;28;20072;-74
2022/03/19 09:26:02;;;;;;;19.98;4.20;;;9.80;99.90;;;;;;5084400;28;20548;-74
2022/03/19 09:28:27;;;;;;;14.70;3.47;;;10.00;99.90;;;;;;5088189;28;20548;-74
2022/03/19 09:30:53;;;;;;;17.63;4.13;;;10.00;99.90;;;;;;5096515;28;20493;-76
2022/03/19 09:33:19;;;;;;;13.30;3.83;;;10.00;99.90;;;;;;5098004;28;20513;-76
2022/03/19 09:35:46;;;;;;;17.88;3.95;;;10.20;99.90;;;;;;5095774;28;20044;-76
2022/03/19 09:38:13;;;;;;;14.30;3.83;;;10.30;99.90;;;;;;5098436;28;20043;-76
2022/03/19 09:40:40;;;;;;;11.93;3.38;;;10.30;99.60;;;;;;5097668;28;20127;-76
2022/03/19 09:43:06;;;;;;;12.40;4.03;;;10.20;99.60;;;;;;5093210;28;20147;-76
2022/03/19 09:45:33;;;;;;;17.92;4.35;;;10.70;99.90;;;;;;5089447;28;20475;-76
2022/03/19 09:47:59;;;;;;;15.82;4.43;;;10.40;99.90;;;;;;5096728;28;20130;-77
2022/03/19 09:50:26;;;;;;;16.20;4.22;;;10.50;99.50;;;;;;5094986;28;20171;-76
2022/03/19 09:52:57;;;;;;;17.95;4.93;;;10.90;99.70;;;;;;5096820;28;20117;-76
2022/03/19 09:55:27;;;;;;;13.23;4.47;;;10.80;99.60;;;;;;5094885;28;20391;-75
2022/03/19 09:57:54;;;;;;;15.88;4.32;;;11.00;99.90;;;;;;5094281;28;20044;-76
2022/03/19 10:00:22;;;;;;;13.52;4.20;;;11.10;99.50;;;;;;5104063;28;20043;-76
2022/03/19 10:02:59;;;;;;;18.40;4.38;;;11.20;97.80;;;;;;5100109;28;20055;-77
2022/03/19 10:10:59;;;;;;;19.48;4.25;;;11.40;97.00;;;;;;5094575;28;20157;-77
2022/03/19 10:13:26;;;;;;;17.38;4.63;;;11.60;97.70;;;;;;5086375;28;20051;-77
2022/03/19 10:15:52;;;;;;;17.52;4.05;;;11.80;97.10;;;;;;5073562;28;20529;-77
2022/03/19 10:18:18;;;;;;;13.93;3.90;;;12.10;97.20;;;;;;5084942;28;20162;-74
2022/03/19 10:20:47;;;;;;;14.27;4.22;;;12.40;95.60;;;;;;5095208;28;20122;-74
2022/03/19 10:23:12;;;;;;;17.83;4.82;;;12.20;93.90;;;;;;5096149;28;20101;-75
2022/03/19 10:25:38;;;;;;;12.88;3.95;;;12.30;94.60;;;;;;5092870;28;20159;-75
2022/03/19 10:28:09;;;;;;;13.77;3.67;;;12.30;93.40;;;;;;5129085;27;20115;-76
2022/03/19 10:30:39;;;;;;;15.43;3.75;;;12.30;93.00;;;;;;5092927;28;20047;-75
2022/03/19 10:33:08;;;;;;;17.55;3.42;;;12.60;91.50;;;;;;5091907;28;20052;-75
2022/03/19 10:35:35;;;;;;;11.80;3.53;;;12.80;90.10;;;;;;5092167;28;20046;-76
2022/03/19 10:38:15;;;;;;;8.02;2.88;;;12.90;89.70;;;;;;5091086;28;20048;-75
2022/03/19 10:40:43;;;;;;;26.27;3.58;;;13.10;89.40;;;;;;5089631;28;20036;-75
2022/03/19 10:43:11;;;;;;;10.18;2.80;;;13.10;86.60;;;;;;5106422;28;20044;-76
2022/03/19 10:45:43;;;;;;;6.68;2.45;;;13.00;85.00;;;;;;5096747;28;20047;-75
2022/03/19 10:48:11;;;;;;;14.10;3.53;;;13.00;81.20;;;;;;5090178;28;20538;-75
2022/03/19 10:50:39;;;;;;;12.43;3.15;;;13.10;82.10;;;;;;5091513;28;20040;-76
2022/03/19 10:53:06;;;;;;;8.45;3.00;;;13.20;82.70;;;;;;5094341;28;20044;-76
2022/03/19 10:55:32;;;;;;;10.27;3.38;;;13.50;81.80;;;;;;5083779;28;20045;-75
2022/03/19 10:57:58;;;;;;;14.70;3.50;;;13.70;80.00;;;;;;5085108;28;20131;-76
2022/03/19 11:00:24;;;;;;;7.13;2.67;;;13.60;77.80;;;;;;5073796;28;20547;-76
2022/03/19 11:02:54;;;;;;;9.25;3.08;;;13.80;76.90;;;;;;5090022;28;20082;-76
2022/03/19 11:05:22;;;;;;;11.60;3.60;;;14.00;78.80;;;;;;5072571;28;20045;-76
2022/03/19 11:07:49;;;;;;;6.07;2.63;;;14.20;73.50;;;;;;5093748;28;20483;-75
2022/03/19 11:10:15;;;;;;;8.25;2.90;;;14.40;75.80;;;;;;5093978;28;20055;-76
2022/03/19 11:12:50;;;;;;;9.10;2.42;;;14.40;74.90;;;;;;5084978;28;20036;-75
2022/03/19 11:15:18;;;;;;;8.82;2.55;;;14.70;72.10;;;;;;5099301;28;20052;-75
2022/03/19 11:17:45;;;;;;;9.07;2.40;;;14.60;66.70;;;;;;5094386;28;20059;-76
2022/03/19 11:20:12;;;;;;;7.97;2.80;;;14.40;67.70;;;;;;5093765;28;20034;-77
2022/03/19 11:22:41;;;;;;;6.45;2.53;;;14.50;69.10;;;;;;5094078;28;20060;-77
2022/03/19 11:25:26;;;;;;;10.45;2.97;;;15.10;66.40;;;;;;5071599;28;20117;-76
2022/03/19 11:27:59;;;;;;;10.73;2.55;;;14.80;64.80;;;;;;5092410;28;20480;-76
2022/03/19 11:30:30;;;;;;;9.38;2.30;;;14.90;64.50;;;;;;5093706;28;20048;-76
2022/03/19 11:33:21;;;;;;;5.07;2.15;;;15.10;63.30;;;;;;5090721;28;20495;-76
2022/03/19 11:36:08;;;;;;;6.68;2.50;;;14.80;59.60;;;;;;5086315;28;20131;-77
2022/03/19 11:38:41;;;;;;;7.00;2.20;;;15.10;60.30;;;;;;5092483;28;20048;-75
2022/03/19 11:41:25;;;;;;;8.20;2.53;;;15.10;62.50;;;;;;5089405;28;20079;-76
2022/03/19 11:44:18;;;;;;;6.57;2.03;;;15.20;61.00;;;;;;5092937;28;20043;-76
2022/03/19 11:46:56;;;;;;;6.88;2.33;;;15.40;59.20;;;;;;5091079;28;20560;-76
2022/03/19 11:49:41;;;;;;;;;;;15.20;58.90;;;;;;5100438;28;20105;-75
2022/03/19 11:52:06;;;;;;;6.40;2.42;;;15.40;61.30;;;;;;5088884;28;19924;-76
2022/03/19 11:55:04;;;;;;;5.90;2.15;;;15.90;63.20;;;;;;5089132;28;20044;-76
2022/03/19 11:57:47;;;;;;;5.82;2.13;;;15.90;58.90;;;;;;5087526;28;20044;-74
2022/03/19 12:00:21;;;;;;;5.43;2.15;;;16.20;57.70;;;;;;5086940;28;20051;-76
2022/03/19 12:03:16;;;;;;;6.10;1.80;;;16.00;55.30;;;;;;5087655;28;20043;-76
2022/03/19 12:05:47;;;;;;;8.60;1.73;;;15.70;53.10;;;;;;5081007;28;20487;-76
2022/03/19 12:08:17;;;;;;;5.97;1.70;;;15.80;55.10;;;;;;5090718;28;20070;-76
2022/03/19 12:10:59;;;;;;;4.50;2.00;;;16.00;55.60;;;;;;5089710;28;20465;-76
2022/03/19 12:13:28;;;;;;;4.25;1.80;;;15.60;55.50;;;;;;5074537;28;20054;-76
2022/03/19 12:15:58;;;;;;;6.43;2.22;;;15.90;56.70;;;;;;5083874;28;20396;-76
2022/03/19 12:18:28;;;;;;;4.72;1.63;;;16.00;56.40;;;;;;5082803;28;20032;-75
2022/03/19 12:20:59;;;;;;;3.85;1.92;;;16.30;56.70;;;;;;5078075;28;20120;-75
2022/03/19 12:23:27;;;;;;;6.18;2.05;;;16.60;55.80;;;;;;5089318;28;20035;-76
2022/03/19 12:26:03;;;;;;;6.13;1.77;;;16.90;55.50;;;;;;5089120;28;20123;-77
2022/03/19 12:28:29;;;;;;;5.03;1.95;;;17.00;54.30;;;;;;5092506;28;20087;-76
2022/03/19 12:31:11;;;;;;;6.78;1.73;;;16.90;53.00;;;;;;5106399;28;20342;-75
2022/03/19 12:33:38;;;;;;;5.95;1.80;;;16.80;53.00;;;;;;5089198;28;20036;-76
2022/03/19 12:36:18;;;;;;;3.70;1.55;;;17.10;52.80;;;;;;5087584;28;20044;-76
2022/03/19 12:38:45;;;;;;;8.85;1.95;;;17.20;50.60;;;;;;5090515;28;20047;-76
2022/03/19 12:41:29;;;;;;;4.43;1.40;;;17.10;51.20;;;;;;5088111;28;20490;-76
2022/03/19 12:43:56;;;;;;;6.65;1.73;;;17.00;50.30;;;;;;5088785;28;20520;-76
2022/03/19 12:46:24;;;;;;;5.82;1.67;;;16.80;50.80;;;;;;5097768;28;20062;-76
2022/03/19 12:48:49;;;;;;;;;;;16.70;50.60;;;;;;5094395;28;20040;-76
2022/03/19 12:51:26;;;;;;;8.70;2.33;;;16.30;51.50;;;;;;5081814;28;19928;-77
2022/03/19 12:53:52;;;;;;;4.40;1.80;;;15.80;52.90;;;;;;5092320;28;20040;-77
2022/03/19 12:56:20;;;;;;;5.60;1.90;;;15.80;53.20;;;;;;5096899;28;20398;-77
2022/03/19 12:58:49;;;;;;;6.00;2.08;;;15.70;51.90;;;;;;5093935;28;20113;-77
2022/03/19 13:01:16;;;;;;;6.60;2.08;;;15.80;51.50;;;;;;5106293;28;20417;-77
2022/03/19 13:03:42;;;;;;;4.97;1.83;;;15.80;50.50;;;;;;5124666;27;20047;-78
2022/03/19 13:06:08;;;;;;;5.05;1.60;;;16.00;51.60;;;;;;5093793;28;20040;-77